Time;durP1;ratioP1;P1;durP2;ratioP2;P2;SDS_P1;SDS_P2;PMS_P1;PMS_P2;Temp;Humidity;BMP_temperature;BMP_pressure;BME280_temperature;BME280_humidity;BME280_pressure;Samples;Min_cycle;Max_cycle;Signal;HPM_P1;HPM_P2
2023/06/07 00:01:48;;;;;;;15.88;9.82;;;12.80;81.60;;;;;;4806485;29;20031;-59
2023/06/07 00:04:13;;;;;;;13.52;9.10;;;12.70;82.40;;;;;;4806414;29;20518;-57
2023/06/07 00:06:39;;;;;;;14.13;8.82;;;12.60;86.00;;;;;;4806409;29;20518;-59
2023/06/07 00:09:09;;;;;;;12.25;9.60;;;12.60;85.10;;;;;;4806206;29;20124;-58
2023/06/07 00:11:37;;;;;;;16.27;10.38;;;12.60;86.20;;;;;;4806453;29;20475;-59
2023/06/07 00:14:03;;;;;;;11.23;9.30;;;12.50;88.00;;;;;;4806086;29;20051;-59
2023/06/07 00:16:29;;;;;;;14.60;9.35;;;12.50;86.20;;;;;;4806209;29;20140;-59
2023/06/07 00:18:55;;;;;;;15.77;9.75;;;12.40;82.70;;;;;;4805761;29;20035;-58
2023/06/07 00:21:22;;;;;;;15.20;11.02;;;12.40;85.40;;;;;;4806038;29;20050;-59
2023/06/07 00:23:48;;;;;;;14.52;9.95;;;12.40;86.00;;;;;;4806225;29;20051;-59
2023/06/07 00:26:14;;;;;;;19.50;10.15;;;12.30;90.20;;;;;;4805913;29;20059;-60
2023/06/07 00:28:40;;;;;;;15.27;10.55;;;12.30;89.50;;;;;;4805851;29;20062;-60
2023/06/07 00:31:06;;;;;;;16.70;10.68;;;12.30;90.10;;;;;;4805849;29;20111;-58
2023/06/07 00:33:32;;;;;;;19.08;9.73;;;12.30;90.30;;;;;;4806028;29;20087;-59
2023/06/07 00:35:58;;;;;;;12.48;9.93;;;12.20;88.90;;;;;;4805763;29;20062;-59
2023/06/07 00:38:24;;;;;;;14.77;10.50;;;12.20;90.60;;;;;;4804711;29;20115;-59
2023/06/07 00:40:50;;;;;;;19.33;10.85;;;12.20;90.70;;;;;;4804610;29;20035;-58
2023/06/07 00:43:15;;;;;;;10.48;9.48;;;12.20;90.70;;;;;;4805660;29;20078;-59
2023/06/07 00:45:41;;;;;;;17.05;9.55;;;12.10;90.20;;;;;;4805783;29;20022;-58
2023/06/07 00:48:07;;;;;;;12.38;9.30;;;12.10;89.80;;;;;;4805848;29;20023;-59
2023/06/07 00:50:34;;;;;;;20.63;9.45;;;12.00;86.70;;;;;;4805684;29;20037;-57
2023/06/07 00:53:03;;;;;;;14.02;9.35;;;12.00;86.40;;;;;;4805543;29;20068;-58
2023/06/07 00:55:29;;;;;;;14.45;9.70;;;12.00;85.00;;;;;;4805507;29;20039;-59
2023/06/07 00:57:55;;;;;;;14.90;7.97;;;12.00;85.10;;;;;;4805324;29;20487;-59
2023/06/07 01:00:21;;;;;;;12.52;9.65;;;12.00;84.40;;;;;;4805417;29;20039;-59
2023/06/07 01:02:49;;;;;;;12.02;9.43;;;11.90;84.30;;;;;;4805567;29;20039;-58
2023/06/07 01:05:16;;;;;;;10.02;9.02;;;11.90;85.10;;;;;;4805240;29;20023;-58
2023/06/07 01:07:45;;;;;;;13.25;9.80;;;11.90;86.50;;;;;;4805368;29;20023;-58
2023/06/07 01:10:11;;;;;;;17.50;10.57;;;12.00;88.00;;;;;;4803958;29;20118;-60
2023/06/07 01:12:38;;;;;;;10.10;8.88;;;11.90;88.00;;;;;;4805421;29;20031;-58
2023/06/07 01:15:04;;;;;;;13.80;9.90;;;11.90;86.80;;;;;;4805076;29;20050;-59
2023/06/07 01:17:31;;;;;;;18.73;10.40;;;11.80;86.10;;;;;;4805231;29;20034;-58
2023/06/07 01:19:58;;;;;;;13.48;10.82;;;11.80;90.00;;;;;;4804906;29;20058;-58
2023/06/07 01:22:27;;;;;;;11.35;10.30;;;11.80;92.00;;;;;;4805174;29;20030;-59
2023/06/07 01:24:56;;;;;;;13.60;10.48;;;11.80;90.90;;;;;;4804952;29;20047;-58
2023/06/07 01:27:27;;;;;;;12.23;9.52;;;11.80;91.40;;;;;;4805083;29;20066;-59
2023/06/07 01:29:55;;;;;;;12.40;9.82;;;11.70;88.50;;;;;;4805079;29;20079;-59
2023/06/07 01:32:22;;;;;;;11.48;8.73;;;11.70;85.30;;;;;;4805018;29;20027;-60
2023/06/07 01:34:49;;;;;;;10.50;8.98;;;11.70;83.00;;;;;;4804447;29;20041;-58
2023/06/07 01:37:15;;;;;;;18.02;9.45;;;11.70;82.60;;;;;;4804831;29;20083;-59
2023/06/07 01:39:41;;;;;;;13.15;9.40;;;11.60;80.90;;;;;;4804834;29;20047;-60
2023/06/07 01:42:09;;;;;;;14.15;10.07;;;11.50;84.70;;;;;;4804853;29;20031;-58
2023/06/07 01:44:37;;;;;;;23.98;9.63;;;11.50;87.70;;;;;;4804842;29;20034;-59
2023/06/07 01:47:04;;;;;;;11.80;10.45;;;11.50;88.00;;;;;;4806404;29;20118;-59
2023/06/07 01:49:30;;;;;;;14.60;10.30;;;11.40;88.50;;;;;;4823119;29;20144;-59
2023/06/07 01:51:55;;;;;;;12.90;11.05;;;11.40;90.70;;;;;;4822865;29;20062;-58
2023/06/07 01:54:21;;;;;;;15.45;10.55;;;11.40;90.10;;;;;;4823062;29;20072;-58
2023/06/07 01:56:56;;;;;;;12.35;9.95;;;11.30;90.10;;;;;;4823192;29;20062;-58
2023/06/07 01:59:39;;;;;;;14.88;10.95;;;11.30;88.60;;;;;;4822713;29;20039;-59
2023/06/07 02:02:32;;;;;;;24.00;10.90;;;11.30;90.60;;;;;;4836699;29;20027;-58
2023/06/07 02:05:03;;;;;;;19.02;12.02;;;11.20;90.20;;;;;;4822934;29;20054;-59
2023/06/07 02:07:32;;;;;;;20.60;12.27;;;11.20;90.50;;;;;;4822766;29;20027;-57
2023/06/07 02:10:01;;;;;;;17.65;12.70;;;11.10;91.00;;;;;;4822857;29;20031;-59
2023/06/07 02:12:28;;;;;;;15.32;12.10;;;11.10;91.70;;;;;;4822763;29;20026;-57
2023/06/07 02:14:55;;;;;;;13.13;10.65;;;11.10;91.40;;;;;;4822525;29;20034;-56
2023/06/07 02:17:28;;;;;;;17.23;11.90;;;11.10;91.10;;;;;;4836570;29;20035;-59
2023/06/07 02:19:55;;;;;;;18.57;10.77;;;11.00;90.30;;;;;;4822517;29;20041;-58
2023/06/07 02:22:20;;;;;;;17.05;11.68;;;11.00;90.40;;;;;;4822710;29;20356;-57
2023/06/07 02:24:47;;;;;;;11.23;9.98;;;11.00;90.70;;;;;;4822608;29;20125;-58
2023/06/07 02:27:13;;;;;;;15.50;11.77;;;11.00;90.90;;;;;;4822349;29;20449;-59
2023/06/07 02:29:39;;;;;;;14.88;10.18;;;11.00;90.00;;;;;;4822601;29;20066;-59
2023/06/07 02:32:05;;;;;;;19.80;12.32;;;11.00;90.40;;;;;;4822558;29;20061;-59
2023/06/07 02:34:32;;;;;;;16.77;11.52;;;11.00;89.00;;;;;;4822623;29;20034;-58
2023/06/07 02:36:58;;;;;;;17.88;12.25;;;11.00;88.70;;;;;;4836297;29;20042;-59
2023/06/07 02:39:24;;;;;;;16.33;11.27;;;11.00;89.80;;;;;;4822460;29;20030;-60
2023/06/07 02:41:50;;;;;;;15.88;11.73;;;11.00;90.80;;;;;;4822366;29;20031;-58
2023/06/07 02:44:15;;;;;;;14.18;11.23;;;11.00;90.60;;;;;;4822449;29;20026;-60
2023/06/07 02:46:41;;;;;;;10.65;9.65;;;11.00;91.10;;;;;;4824369;29;20019;-60
2023/06/07 02:49:07;;;;;;;11.25;10.07;;;11.00;90.90;;;;;;4825609;29;20109;-60
2023/06/07 02:51:32;;;;;;;17.15;10.10;;;11.10;91.70;;;;;;4825824;29;20052;-57
2023/06/07 02:54:00;;;;;;;13.77;11.68;;;11.10;91.80;;;;;;4825650;29;20061;-59
2023/06/07 02:56:29;;;;;;;16.13;10.93;;;11.20;93.50;;;;;;4825536;29;20464;-58
2023/06/07 02:58:54;;;;;;;12.07;10.13;;;11.30;93.50;;;;;;4825355;29;20037;-58
2023/06/07 03:01:21;;;;;;;14.50;9.98;;;11.40;94.50;;;;;;4825528;29;20022;-58
2023/06/07 03:03:47;;;;;;;10.50;9.52;;;11.50;96.90;;;;;;4825617;29;20038;-59
2023/06/07 03:06:15;;;;;;;17.23;10.77;;;11.60;97.10;;;;;;4839524;29;20030;-60
2023/06/07 03:08:40;;;;;;;11.18;10.02;;;11.80;97.70;;;;;;4825388;29;20034;-59
2023/06/07 03:11:06;;;;;;;16.05;11.32;;;11.90;97.50;;;;;;4825176;29;20026;-58
2023/06/07 03:13:32;;;;;;;32.90;10.75;;;11.90;97.10;;;;;;4825350;29;20031;-60
2023/06/07 03:15:57;;;;;;;13.23;11.90;;;11.90;97.90;;;;;;4825172;29;20042;-59
2023/06/07 03:18:23;;;;;;;14.55;11.48;;;12.00;98.30;;;;;;4825242;29;20038;-60
2023/06/07 03:20:49;;;;;;;12.25;10.95;;;12.10;98.80;;;;;;4825225;29;20038;-59
2023/06/07 03:23:15;;;;;;;14.88;11.45;;;12.20;98.90;;;;;;4825156;29;20026;-60
2023/06/07 03:25:41;;;;;;;12.50;11.00;;;12.30;98.20;;;;;;4824919;29;20042;-59
2023/06/07 03:28:06;;;;;;;13.73;12.32;;;12.40;97.10;;;;;;4824852;29;20475;-60
2023/06/07 03:30:32;;;;;;;12.25;11.05;;;12.40;97.40;;;;;;4825089;29;20034;-60
2023/06/07 03:32:58;;;;;;;12.27;11.00;;;12.50;97.70;;;;;;4825085;29;20031;-58
2023/06/07 03:35:24;;;;;;;16.45;10.77;;;12.50;97.30;;;;;;4824957;29;20125;-58
2023/06/07 03:37:50;;;;;;;12.55;11.02;;;12.50;97.20;;;;;;4824730;29;20443;-58
2023/06/07 03:40:15;;;;;;;15.63;10.73;;;12.50;97.60;;;;;;4824631;29;20125;-60
2023/06/07 03:42:41;;;;;;;13.32;11.00;;;12.60;98.10;;;;;;4824962;29;20105;-58
2023/06/07 03:45:07;;;;;;;11.70;10.43;;;12.60;97.20;;;;;;4824727;29;20034;-59
2023/06/07 03:47:33;;;;;;;12.30;11.10;;;12.70;97.30;;;;;;4824841;29;20031;-59
2023/06/07 03:49:58;;;;;;;12.93;11.57;;;12.80;95.30;;;;;;4824757;29;20030;-58
2023/06/07 03:52:24;;;;;;;11.77;10.48;;;12.90;94.20;;;;;;4824516;29;20468;-60
2023/06/07 03:54:51;;;;;;;12.70;11.05;;;12.90;93.20;;;;;;4824569;29;20030;-58
2023/06/07 03:57:17;;;;;;;12.73;11.40;;;12.90;93.90;;;;;;4824218;29;20486;-59
2023/06/07 03:59:42;;;;;;;13.23;11.38;;;12.90;95.00;;;;;;4824555;29;20058;-58
2023/06/07 04:02:08;;;;;;;11.73;10.52;;;12.90;95.20;;;;;;4824354;29;20041;-60
2023/06/07 04:04:33;;;;;;;11.88;10.70;;;12.90;95.90;;;;;;4838537;29;20025;-59
2023/06/07 04:07:01;;;;;;;12.52;10.98;;;13.00;95.00;;;;;;4824547;29;20034;-57
2023/06/07 04:09:26;;;;;;;12.15;10.85;;;13.00;95.90;;;;;;4824307;29;20026;-60
2023/06/07 04:11:52;;;;;;;19.33;11.85;;;13.00;94.20;;;;;;4824387;29;20145;-59
2023/06/07 04:14:18;;;;;;;13.95;12.15;;;13.00;94.90;;;;;;4824329;29;20668;-58
2023/06/07 04:16:44;;;;;;;15.93;11.57;;;12.90;96.00;;;;;;4824414;29;20113;-58
2023/06/07 04:19:10;;;;;;;12.98;11.57;;;13.00;96.40;;;;;;4824146;29;20034;-60
2023/06/07 04:21:35;;;;;;;14.48;13.02;;;13.10;95.60;;;;;;4824365;29;20038;-58
2023/06/07 04:24:01;;;;;;;13.77;12.20;;;13.10;95.00;;;;;;4823780;29;20418;-57
2023/06/07 04:26:31;;;;;;;13.55;11.98;;;13.10;94.60;;;;;;4823460;29;20519;-58
2023/06/07 04:28:59;;;;;;;15.27;11.85;;;13.20;95.30;;;;;;4823563;29;20109;-59
2023/06/07 04:31:33;;;;;;;13.60;12.20;;;13.20;94.80;;;;;;4824075;29;20390;-58
2023/06/07 04:34:01;;;;;;;17.15;11.90;;;13.30;95.10;;;;;;4823950;29;20078;-60
2023/06/07 04:36:30;;;;;;;13.60;12.18;;;13.50;94.70;;;;;;4824159;29;20026;-59
2023/06/07 04:38:56;;;;;;;13.95;12.48;;;13.70;92.60;;;;;;4823845;29;20083;-58
2023/06/07 04:41:30;;;;;;;15.13;13.48;;;13.80;91.00;;;;;;4823635;29;20030;-58
2023/06/07 04:43:56;;;;;;;15.13;13.70;;;14.00;90.00;;;;;;4823683;29;20035;-60
2023/06/07 04:46:22;;;;;;;14.70;13.15;;;14.10;81.90;;;;;;4823909;29;20023;-60
2023/06/07 04:48:47;;;;;;;14.82;13.32;;;14.10;84.90;;;;;;4823770;29;20475;-59
2023/06/07 04:51:13;;;;;;;14.52;13.02;;;14.20;79.50;;;;;;4823474;29;20042;-57
2023/06/07 04:53:41;;;;;;;13.40;11.40;;;14.30;70.60;;;;;;4823550;29;20027;-60
2023/06/07 04:56:07;;;;;;;13.35;12.02;;;14.40;69.80;;;;;;4822847;29;20035;-59
2023/06/07 04:58:33;;;;;;;16.52;11.18;;;14.40;69.90;;;;;;4822978;29;20038;-59
2023/06/07 05:00:59;;;;;;;12.85;11.50;;;14.50;70.30;;;;;;4823185;29;20413;-60
2023/06/07 05:03:25;;;;;;;16.95;11.85;;;14.60;60.80;;;;;;4823566;29;20038;-60
2023/06/07 05:05:51;;;;;;;15.85;11.32;;;14.60;60.20;;;;;;4837179;29;20034;-58
2023/06/07 05:08:17;;;;;;;12.07;10.88;;;14.60;60.80;;;;;;4822267;29;20606;-58
2023/06/07 05:10:44;;;;;;;11.93;10.82;;;14.60;61.60;;;;;;4823115;29;20117;-59
2023/06/07 05:13:10;;;;;;;12.55;11.32;;;14.60;63.10;;;;;;4823085;29;20030;-59
2023/06/07 05:15:36;;;;;;;18.42;13.80;;;14.60;65.80;;;;;;4822921;29;20033;-60
2023/06/07 05:18:02;;;;;;;15.10;13.20;;;14.50;67.30;;;;;;4822718;29;20041;-59
2023/06/07 05:20:29;;;;;;;15.02;13.20;;;14.50;74.10;;;;;;4823184;29;20406;-58
2023/06/07 05:22:54;;;;;;;16.65;13.35;;;14.50;77.90;;;;;;4823123;29;20022;-60
2023/06/07 05:25:20;;;;;;;16.55;13.45;;;14.50;76.80;;;;;;4822974;29;20064;-57
2023/06/07 05:27:49;;;;;;;13.93;12.40;;;14.60;75.80;;;;;;4823418;29;20525;-58
2023/06/07 05:30:16;;;;;;;12.27;11.00;;;14.60;77.40;;;;;;4822887;29;20502;-56
2023/06/07 05:32:42;;;;;;;18.83;11.23;;;14.70;81.40;;;;;;4823187;29;20034;-58
2023/06/07 05:35:08;;;;;;;13.13;11.82;;;14.80;78.70;;;;;;4822993;29;20052;-59
2023/06/07 05:37:34;;;;;;;12.55;10.85;;;14.80;77.10;;;;;;4823305;29;20033;-60
2023/06/07 05:40:00;;;;;;;13.50;10.35;;;15.00;71.60;;;;;;4822857;29;20030;-59
2023/06/07 05:42:25;;;;;;;11.90;10.80;;;15.10;65.00;;;;;;4822424;29;20106;-59
2023/06/07 05:44:51;;;;;;;12.57;10.85;;;15.30;62.70;;;;;;4822431;29;20634;-59
2023/06/07 05:47:17;;;;;;;13.45;10.98;;;15.40;53.30;;;;;;4822849;29;20109;-59
2023/06/07 05:49:46;;;;;;;12.05;10.60;;;15.40;59.10;;;;;;4822784;29;20030;-59
2023/06/07 05:52:15;;;;;;;14.05;10.07;;;15.50;41.00;;;;;;4822450;29;20091;-59
2023/06/07 05:54:48;;;;;;;14.93;11.27;;;15.60;43.70;;;;;;4822947;29;20039;-60
2023/06/07 05:57:14;;;;;;;12.20;10.30;;;15.70;42.40;;;;;;4822698;29;20078;-59
2023/06/07 05:59:39;;;;;;;13.07;10.32;;;15.80;30.10;;;;;;4822821;29;20030;-58
2023/06/07 06:02:07;;;;;;;16.83;10.18;;;15.80;29.30;;;;;;4836629;29;20035;-56
2023/06/07 06:04:32;;;;;;;18.35;10.57;;;15.80;23.00;;;;;;4822800;29;20050;-59
2023/06/07 06:06:58;;;;;;;12.18;10.23;;;15.80;27.80;;;;;;4822197;29;20027;-59
2023/06/07 06:09:24;;;;;;;10.75;9.65;;;15.90;24.30;;;;;;4822098;29;20034;-56
2023/06/07 06:11:51;;;;;;;10.32;9.35;;;16.00;23.80;;;;;;4822118;29;20033;-57
2023/06/07 06:14:17;;;;;;;10.73;9.70;;;16.00;10.70;;;;;;4822205;29;20037;-56
2023/06/07 06:16:42;;;;;;;10.88;9.73;;;16.20;10.80;;;;;;4836192;29;20039;-59
2023/06/07 06:19:08;;;;;;;9.52;8.63;;;16.20;1.00;;;;;;4821494;29;20042;-56
2023/06/07 06:21:33;;;;;;;10.50;9.40;;;16.30;1.00;;;;;;4824945;29;20387;-57
2023/06/07 06:24:00;;;;;;;10.38;8.77;;;16.20;1.00;;;;;;4825625;29;20034;-59
2023/06/07 06:26:27;;;;;;;11.10;9.38;;;16.20;4.70;;;;;;4825306;29;20050;-57
2023/06/07 06:28:53;;;;;;;10.60;9.35;;;16.30;11.30;;;;;;4825406;29;20026;-58
2023/06/07 06:31:18;;;;;;;15.50;9.90;;;16.30;21.00;;;;;;4825626;29;20030;-57
2023/06/07 06:33:44;;;;;;;11.82;10.60;;;16.40;17.30;;;;;;4825679;29;20031;-58
2023/06/07 06:36:11;;;;;;;14.38;11.02;;;16.40;19.40;;;;;;4825877;29;20037;-58
2023/06/07 06:38:36;;;;;;;16.23;10.35;;;16.60;22.10;;;;;;4826013;29;20026;-57
2023/06/07 06:41:02;;;;;;;14.98;10.25;;;16.70;20.70;;;;;;4825754;29;20728;-57
2023/06/07 06:43:28;;;;;;;9.48;8.57;;;16.80;11.80;;;;;;4825866;29;20022;-56
2023/06/07 06:45:53;;;;;;;10.50;9.50;;;16.90;6.80;;;;;;4825773;29;20027;-55
2023/06/07 06:48:19;;;;;;;10.50;8.93;;;16.90;1.00;;;;;;4825681;29;20513;-57
2023/06/07 06:50:46;;;;;;;16.40;9.18;;;16.90;1.00;;;;;;4825718;29;20474;-57
2023/06/07 06:53:12;;;;;;;35.70;10.32;;;17.00;1.00;;;;;;4825491;29;20603;-56
2023/06/07 06:55:38;;;;;;;11.88;9.23;;;17.00;1.00;;;;;;4825634;29;20045;-58
2023/06/07 06:58:03;;;;;;;29.30;9.93;;;17.10;1.00;;;;;;4825226;29;20027;-58
2023/06/07 07:00:31;;;;;;;10.95;9.85;;;17.20;8.10;;;;;;4825136;29;20375;-58
2023/06/07 07:02:57;;;;;;;12.20;10.38;;;17.30;16.60;;;;;;4825304;29;20087;-55
2023/06/07 07:05:23;;;;;;;15.13;9.18;;;17.40;1.00;;;;;;4825179;29;20031;-57
2023/06/07 07:07:48;;;;;;;11.57;9.43;;;17.40;1.00;;;;;;4839146;29;20034;-56
2023/06/07 07:10:14;;;;;;;12.50;9.90;;;17.50;1.00;;;;;;4825013;29;20034;-56
2023/06/07 07:12:42;;;;;;;18.63;9.80;;;17.60;1.00;;;;;;4825138;29;20731;-58
2023/06/07 07:15:07;;;;;;;10.02;8.40;;;17.70;1.00;;;;;;4824659;29;20027;-58
2023/06/07 07:17:33;;;;;;;11.95;8.63;;;17.90;1.00;;;;;;4824976;29;20026;-58
2023/06/07 07:19:59;;;;;;;10.65;8.93;;;18.10;1.00;;;;;;4824681;29;20031;-58
2023/06/07 07:22:25;;;;;;;11.10;7.82;;;18.20;1.00;;;;;;4824869;29;20049;-58
2023/06/07 07:24:50;;;;;;;11.88;7.43;;;18.40;1.00;;;;;;4824648;29;20627;-57
2023/06/07 07:27:18;;;;;;;9.70;7.78;;;18.50;1.00;;;;;;4824500;29;20089;-57
2023/06/07 07:29:43;;;;;;;10.60;7.20;;;18.70;99.90;;;;;;4824404;29;20519;-58
2023/06/07 07:32:09;;;;;;;7.60;6.68;;;18.90;99.90;;;;;;4823601;29;20034;-58
2023/06/07 07:34:35;;;;;;;9.13;7.38;;;18.80;99.90;;;;;;4824698;29;20581;-58
2023/06/07 07:37:02;;;;;;;10.88;7.13;;;18.60;99.90;;;;;;4824710;29;20022;-58
2023/06/07 07:39:28;;;;;;;8.32;7.38;;;18.80;99.90;;;;;;4824639;29;20034;-55
2023/06/07 07:41:55;;;;;;;9.75;7.55;;;18.80;99.90;;;;;;4824792;29;20053;-59
2023/06/07 07:44:20;;;;;;;9.15;8.07;;;18.80;99.90;;;;;;4824813;29;20087;-58
2023/06/07 07:46:46;;;;;;;8.07;6.70;;;18.80;99.90;;;;;;4824815;29;20058;-59
2023/06/07 07:49:12;;;;;;;8.30;7.00;;;19.00;99.90;;;;;;4824566;29;20109;-58
2023/06/07 07:51:38;;;;;;;7.65;6.72;;;19.30;99.90;;;;;;4824699;29;20094;-58
2023/06/07 07:54:04;;;;;;;5.80;5.30;;;19.60;1.00;;;;;;4824194;29;20042;-58
2023/06/07 07:56:29;;;;;;;8.50;6.75;;;19.90;1.00;;;;;;4824326;29;20099;-57
2023/06/07 07:58:55;;;;;;;9.80;6.47;;;20.10;92.40;;;;;;4824357;29;20037;-57
2023/06/07 08:01:22;;;;;;;9.65;6.65;;;20.00;99.90;;;;;;4824537;29;20184;-56
2023/06/07 08:03:48;;;;;;;14.77;6.20;;;19.90;91.90;;;;;;4838289;29;20471;-55
2023/06/07 08:06:14;;;;;;;7.60;6.32;;;20.00;99.90;;;;;;4824289;29;20114;-59
2023/06/07 08:08:40;;;;;;;9.95;5.78;;;20.20;99.90;;;;;;4824330;29;20113;-56
2023/06/07 08:11:05;;;;;;;12.05;9.77;;;20.20;99.90;;;;;;4824072;29;20101;-58
2023/06/07 08:13:31;;;;;;;10.35;6.68;;;20.20;1.00;;;;;;4824162;29;20431;-58
2023/06/07 08:15:57;;;;;;;8.90;7.43;;;20.20;1.00;;;;;;4824108;29;20105;-56
2023/06/07 08:18:22;;;;;;;9.50;6.55;;;20.40;99.90;;;;;;4838207;29;20041;-56
2023/06/07 08:20:48;;;;;;;6.72;6.00;;;20.60;99.90;;;;;;4823924;29;20497;-58
2023/06/07 08:23:14;;;;;;;8.88;7.13;;;20.70;99.90;;;;;;4823915;29;20083;-57
2023/06/07 08:25:40;;;;;;;8.15;6.55;;;20.70;99.90;;;;;;4823450;29;20046;-58
2023/06/07 08:28:08;;;;;;;8.43;7.10;;;20.70;99.90;;;;;;4823443;29;20054;-59
2023/06/07 08:30:33;;;;;;;9.05;7.32;;;20.90;77.70;;;;;;4823658;29;20042;-57
2023/06/07 08:32:59;;;;;;;7.38;6.60;;;21.10;1.00;;;;;;4823717;29;20087;-59
2023/06/07 08:35:25;;;;;;;8.75;7.70;;;21.40;1.00;;;;;;4824020;29;20042;-58
2023/06/07 08:37:50;;;;;;;8.55;7.55;;;21.70;99.90;;;;;;4824138;29;20026;-58
2023/06/07 08:40:19;;;;;;;8.07;7.28;;;21.70;99.90;;;;;;4823670;29;20109;-58
2023/06/07 08:42:45;;;;;;;8.93;6.35;;;22.20;99.90;;;;;;4823928;29;20019;-58
2023/06/07 08:45:11;;;;;;;13.27;6.50;;;22.10;99.90;;;;;;4823810;29;20122;-58
2023/06/07 08:47:37;;;;;;;7.55;6.85;;;22.30;1.00;;;;;;4823946;29;20038;-59
2023/06/07 08:50:03;;;;;;;9.73;7.20;;;22.40;99.90;;;;;;4823665;29;20068;-57
2023/06/07 08:52:31;;;;;;;8.15;7.20;;;22.50;50.80;;;;;;4823482;29;20054;-56
2023/06/07 08:55:01;;;;;;;9.77;8.07;;;22.30;1.00;;;;;;4823132;29;20117;-58
2023/06/07 08:57:28;;;;;;;9.13;8.13;;;22.50;99.90;;;;;;4823688;29;20705;-59
2023/06/07 08:59:54;;;;;;;13.13;7.40;;;22.60;23.50;;;;;;4823056;29;20609;-59
2023/06/07 09:02:20;;;;;;;8.40;7.57;;;22.90;99.90;;;;;;4823112;29;20069;-59
2023/06/07 09:04:46;;;;;;;10.43;7.28;;;23.50;1.00;;;;;;4822185;29;20058;-58
2023/06/07 09:07:12;;;;;;;8.23;7.43;;;23.80;99.90;;;;;;4823218;29;20067;-59
2023/06/07 09:09:43;;;;;;;6.50;5.88;;;23.90;99.90;;;;;;4822688;29;20067;-58
2023/06/07 09:12:10;;;;;;;7.80;6.72;;;24.30;1.00;;;;;;4822707;29;20053;-60
2023/06/07 09:14:36;;;;;;;7.72;6.85;;;24.20;99.90;;;;;;4822852;29;20055;-58
2023/06/07 09:17:02;;;;;;;18.20;6.80;;;24.20;99.90;;;;;;4823269;29;20506;-59
2023/06/07 09:19:41;;;;;;;8.85;6.82;;;24.10;99.90;;;;;;4823061;29;20050;-59
2023/06/07 09:22:09;;;;;;;7.93;6.60;;;24.20;99.90;;;;;;4822927;29;20058;-58
2023/06/07 09:24:36;;;;;;;8.00;6.88;;;24.40;99.90;;;;;;4823024;29;20042;-59
2023/06/07 09:27:03;;;;;;;10.23;5.35;;;24.60;1.00;;;;;;4823067;29;20121;-59
2023/06/07 09:29:37;;;;;;;11.82;5.75;;;24.30;1.00;;;;;;4822838;29;20059;-58
2023/06/07 09:32:25;;;;;;;7.93;5.88;;;24.50;99.90;;;;;;4822265;29;20105;-58
2023/06/07 09:34:54;;;;;;;8.05;6.05;;;24.30;99.90;;;;;;4808555;29;20035;-58
2023/06/07 09:37:21;;;;;;;7.47;5.22;;;24.10;99.90;;;;;;4794625;29;20448;-58
2023/06/07 09:39:53;;;;;;;8.45;5.07;;;24.30;99.90;;;;;;4794891;29;20038;-58
2023/06/07 09:42:19;;;;;;;8.25;5.18;;;24.50;99.90;;;;;;4793610;29;20048;-58
2023/06/07 09:44:45;;;;;;;5.75;4.72;;;24.60;99.90;;;;;;4793785;29;20042;-58
2023/06/07 09:47:21;;;;;;;8.98;4.90;;;24.60;99.90;;;;;;4794432;29;20034;-58
2023/06/07 09:49:47;;;;;;;6.57;4.55;;;25.00;99.90;;;;;;4793590;29;20041;-58
2023/06/07 09:52:14;;;;;;;5.07;4.57;;;25.30;99.90;;;;;;4794096;29;20222;-58
2023/06/07 09:54:42;;;;;;;5.15;4.45;;;25.10;2.50;;;;;;4794038;29;20039;-58
2023/06/07 09:57:24;;;;;;;5.55;4.43;;;25.20;1.00;;;;;;4794381;29;20366;-58
2023/06/07 10:02:35;;;;;;;9.10;6.00;;;25.20;9.30;;;;;;4793838;29;20118;-57
2023/06/07 10:05:00;;;;;;;5.47;4.50;;;25.10;9.60;;;;;;4792991;29;20125;-58
2023/06/07 10:07:30;;;;;;;6.13;4.20;;;24.90;1.20;;;;;;4793277;29;20027;-58
2023/06/07 10:09:58;;;;;;;7.00;4.90;;;24.30;9.70;;;;;;4793372;29;20092;-58
2023/06/07 10:12:28;;;;;;;6.45;4.50;;;23.90;1.00;;;;;;4792839;29;20126;-58
2023/06/07 10:14:54;;;;;;;5.82;5.13;;;24.00;8.70;;;;;;4793516;29;20047;-58
2023/06/07 10:17:27;;;;;;;9.27;4.35;;;23.90;1.00;;;;;;4793818;29;20062;-59
2023/06/07 10:19:59;;;;;;;5.07;4.57;;;23.90;4.40;;;;;;4793399;29;20039;-59
2023/06/07 10:22:28;;;;;;;8.20;3.65;;;24.30;1.00;;;;;;4793232;29;20049;-58
2023/06/07 10:25:10;;;;;;;9.98;4.25;;;24.10;1.00;;;;;;4793723;29;20047;-56
2023/06/07 10:27:51;;;;;;;7.65;3.75;;;23.80;1.00;;;;;;4793495;29;20433;-59
2023/06/07 10:30:18;;;;;;;8.93;4.43;;;24.10;1.00;;;;;;4792927;29;20046;-58
2023/06/07 10:32:46;;;;;;;5.00;4.25;;;24.00;1.00;;;;;;4792752;29;20423;-58
2023/06/07 10:35:12;;;;;;;6.32;4.93;;;23.90;1.00;;;;;;4792780;29;20920;-59
2023/06/07 10:37:40;;;;;;;7.82;4.07;;;23.90;1.00;;;;;;4793782;29;20164;-57
2023/06/07 10:40:10;;;;;;;7.00;4.85;;;23.90;1.00;;;;;;4793806;29;20038;-58
2023/06/07 10:42:38;;;;;;;5.93;4.32;;;24.20;1.00;;;;;;4793249;29;20039;-58
2023/06/07 10:45:05;;;;;;;6.68;3.95;;;24.00;1.00;;;;;;4793117;29;20117;-57
2023/06/07 10:47:30;;;;;;;9.80;3.97;;;24.10;1.00;;;;;;4791764;29;20083;-58
2023/06/07 10:49:57;;;;;;;6.25;4.47;;;24.20;1.00;;;;;;4793913;29;20039;-57
2023/06/07 10:52:26;;;;;;;11.23;5.82;;;24.40;1.00;;;;;;4793104;29;20511;-58
2023/06/07 10:54:52;;;;;;;7.72;4.28;;;24.30;1.00;;;;;;4791997;29;20133;-59
2023/06/07 10:57:37;;;;;;;7.43;4.95;;;24.20;1.00;;;;;;4793239;29;20057;-59
2023/06/07 11:00:25;;;;;;;4.40;4.00;;;24.30;1.00;;;;;;4793600;29;20398;-59
2023/06/07 11:03:12;;;;;;;6.40;4.32;;;24.60;1.00;;;;;;4792877;29;20549;-58
2023/06/07 11:05:53;;;;;;;10.38;3.92;;;24.90;1.00;;;;;;4792850;29;22836;-57
2023/06/07 11:08:23;;;;;;;4.82;3.80;;;25.40;1.00;;;;;;4796630;29;20689;-57
2023/06/07 11:10:49;;;;;;;4.13;3.55;;;25.70;1.00;;;;;;4796252;29;20047;-57
2023/06/07 11:13:15;;;;;;;8.77;3.72;;;26.00;1.00;;;;;;4796234;29;20035;-58
2023/06/07 11:15:41;;;;;;;4.43;3.05;;;26.50;1.00;;;;;;4797109;29;20468;-59
2023/06/07 11:18:08;;;;;;;9.60;3.92;;;26.50;1.00;;;;;;4796015;29;20499;-58
2023/06/07 11:20:37;;;;;;;6.10;3.47;;;27.20;1.00;;;;;;4796359;29;20037;-57
2023/06/07 11:23:21;;;;;;;10.52;3.70;;;26.80;99.90;;;;;;4796490;29;20078;-59
2023/06/07 11:26:09;;;;;;;4.63;3.03;;;26.80;99.90;;;;;;4795999;29;20047;-58
2023/06/07 11:28:37;;;;;;;5.00;3.55;;;27.40;99.90;;;;;;4796413;29;20030;-59
2023/06/07 11:31:04;;;;;;;3.20;2.90;;;27.30;99.90;;;;;;4796673;29;21800;-59
2023/06/07 11:33:30;;;;;;;7.10;4.10;;;27.60;99.90;;;;;;4807002;29;20027;-58
2023/06/07 11:35:57;;;;;;;8.43;3.85;;;27.70;99.90;;;;;;4806481;29;20079;-57
2023/06/07 11:38:24;;;;;;;4.13;2.67;;;28.20;99.90;;;;;;4806246;29;20042;-58
2023/06/07 11:40:50;;;;;;;4.13;3.28;;;28.00;99.90;;;;;;4805261;29;20059;-58
2023/06/07 11:43:22;;;;;;;7.80;2.97;;;27.40;99.90;;;;;;4805561;29;20067;-57
2023/06/07 11:45:48;;;;;;;6.63;3.35;;;27.20;99.90;;;;;;4806234;29;20037;-55
2023/06/07 11:48:14;;;;;;;4.57;2.60;;;27.20;99.90;;;;;;4806487;29;20031;-58
2023/06/07 11:50:41;;;;;;;4.68;3.30;;;27.60;99.90;;;;;;4806458;29;20092;-57
2023/06/07 11:53:10;;;;;;;7.38;3.55;;;27.80;99.90;;;;;;4806202;29;20114;-58
2023/06/07 11:55:37;;;;;;;5.68;2.88;;;27.70;99.90;;;;;;4806658;29;20124;-58
2023/06/07 11:58:05;;;;;;;12.23;3.08;;;28.20;99.90;;;;;;4806072;29;20638;-55
2023/06/07 12:00:33;;;;;;;5.68;3.17;;;28.50;99.90;;;;;;4806286;29;20033;-59
2023/06/07 12:02:59;;;;;;;8.05;2.90;;;28.90;99.90;;;;;;4805472;29;20050;-58
2023/06/07 12:05:34;;;;;;;6.47;3.53;;;29.60;99.90;;;;;;4806032;29;20027;-57
2023/06/07 12:08:05;;;;;;;7.40;2.95;;;29.00;99.90;;;;;;4805892;29;20042;-59
2023/06/07 12:10:32;;;;;;;3.60;2.55;;;28.50;99.90;;;;;;4805732;29;20034;-57
2023/06/07 12:13:18;;;;;;;5.43;3.08;;;28.40;99.90;;;;;;4805854;29;20035;-58
2023/06/07 12:15:46;;;;;;;4.40;3.00;;;29.10;99.90;;;;;;4805950;29;20088;-58
2023/06/07 12:18:19;;;;;;;4.65;2.85;;;29.90;99.90;;;;;;4805472;29;20039;-56
2023/06/07 12:20:46;;;;;;;6.18;3.00;;;29.70;99.90;;;;;;4804376;29;20126;-58
2023/06/07 12:23:14;;;;;;;7.05;3.03;;;29.10;99.90;;;;;;4805713;29;20466;-57
2023/06/07 12:25:43;;;;;;;3.40;3.08;;;28.60;99.90;;;;;;4805960;29;20073;-56
2023/06/07 12:28:11;;;;;;;6.70;2.78;;;27.90;99.90;;;;;;4805655;29;20058;-57
2023/06/07 12:30:38;;;;;;;3.15;2.50;;;28.00;99.90;;;;;;4805828;29;20122;-58
2023/06/07 12:33:04;;;;;;;3.88;2.47;;;28.30;99.90;;;;;;4805410;29;20367;-58
2023/06/07 12:35:40;;;;;;;4.63;2.90;;;29.60;99.90;;;;;;4805730;29;20027;-59
2023/06/07 12:38:06;;;;;;;3.47;2.67;;;30.40;99.90;;;;;;4803940;29;20122;-58
2023/06/07 12:40:32;;;;;;;5.75;2.92;;;30.30;99.90;;;;;;4805352;29;20039;-57
2023/06/07 12:42:58;;;;;;;6.15;2.42;;;30.20;99.90;;;;;;4805648;29;20135;-59